Time;durP1;ratioP1;P1;durP2;ratioP2;P2;SDS_P1;SDS_P2;PMS_P1;PMS_P2;Temp;Humidity;BMP_temperature;BMP_pressure;BME280_temperature;BME280_humidity;BME280_pressure;Samples;Min_cycle;Max_cycle;Signal;HPM_P1;HPM_P2
2022/12/28 00:01:13;;;;;;;5.82;2.70;;;13.40;91.20;;;;;;5075500;28;20068;-71
2022/12/28 00:03:38;;;;;;;5.53;2.28;;;13.40;93.10;;;;;;5073576;28;20095;-70
2022/12/28 00:06:05;;;;;;;7.18;2.38;;;;;;;;;;5075170;28;20072;-71
2022/12/28 00:08:30;;;;;;;7.50;2.80;;;13.30;93.00;;;;;;5064331;28;20036;-70
2022/12/28 00:11:04;;;;;;;10.25;3.10;;;13.40;93.10;;;;;;5063338;28;20068;-70
2022/12/28 00:13:30;;;;;;;7.13;2.50;;;13.20;93.00;;;;;;5035629;28;20454;-67
2022/12/28 00:15:57;;;;;;;7.15;2.80;;;13.30;93.10;;;;;;5036050;28;20050;-70
2022/12/28 00:18:22;;;;;;;8.45;2.70;;;13.10;93.00;;;;;;5039106;28;20490;-70
2022/12/28 00:20:58;;;;;;;6.18;2.88;;;13.50;93.10;;;;;;5074769;28;20040;-67
2022/12/28 00:23:24;;;;;;;5.50;2.63;;;13.60;93.20;;;;;;5075053;28;20571;-66
2022/12/28 00:25:50;;;;;;;9.15;2.80;;;13.30;93.00;;;;;;5048760;28;20454;-70
2022/12/28 00:28:16;;;;;;;7.28;3.00;;;13.20;93.00;;;;;;5045692;28;20049;-67
2022/12/28 00:30:41;;;;;;;8.43;3.25;;;13.10;93.00;;;;;;5071104;28;20051;-70
2022/12/28 00:33:07;;;;;;;5.72;2.65;;;13.30;92.00;;;;;;5055617;28;20049;-70
2022/12/28 00:35:33;;;;;;;7.38;2.78;;;12.80;93.00;;;;;;5055611;28;20495;-67
2022/12/28 00:37:59;;;;;;;6.45;2.92;;;13.10;93.40;;;;;;5055264;28;20479;-67
2022/12/28 00:40:24;;;;;;;7.05;2.80;;;12.90;91.90;;;;;;5060012;28;20087;-69
2022/12/28 00:42:50;;;;;;;7.70;2.90;;;13.00;93.20;;;;;;5042161;28;20377;-69
2022/12/28 00:45:16;;;;;;;6.82;2.55;;;13.10;92.10;;;;;;5036029;28;20052;-68
2022/12/28 00:47:42;;;;;;;5.55;2.60;;;13.10;92.10;;;;;;5035195;28;20058;-70
2022/12/28 00:50:08;;;;;;;6.85;2.80;;;13.30;93.30;;;;;;5069443;28;20045;-70
2022/12/28 00:52:34;;;;;;;6.15;2.83;;;13.30;92.10;;;;;;5075261;28;20410;-63
2022/12/28 00:55:00;;;;;;;6.72;2.70;;;;;;;;;;5074456;28;20054;-66
2022/12/28 00:57:26;;;;;;;7.05;2.75;;;13.10;92.00;;;;;;5049879;28;20041;-70
2022/12/28 00:59:52;;;;;;;7.05;2.88;;;12.90;93.20;;;;;;5035938;28;20038;-69
2022/12/28 01:02:17;;;;;;;7.18;2.67;;;13.00;93.30;;;;;;5035145;28;20404;-69
2022/12/28 01:04:43;;;;;;;5.93;2.50;;;13.20;92.10;;;;;;5035159;28;20541;-69
2022/12/28 01:07:09;;;;;;;6.75;2.90;;;13.00;93.30;;;;;;5044822;28;20040;-70
2022/12/28 01:09:35;;;;;;;6.90;2.92;;;12.90;92.10;;;;;;5072135;28;20041;-70
2022/12/28 01:12:00;;;;;;;5.80;2.97;;;12.90;93.40;;;;;;5074167;28;20398;-71
2022/12/28 01:14:26;;;;;;;6.35;2.90;;;13.00;93.30;;;;;;5048421;28;20045;-71
2022/12/28 01:16:52;;;;;;;7.80;2.83;;;13.00;93.40;;;;;;5040938;28;20053;-70
2022/12/28 01:19:20;;;;;;;6.72;2.80;;;12.90;91.90;;;;;;5044159;28;20090;-69
2022/12/28 01:21:48;;;;;;;8.05;2.85;;;12.90;93.40;;;;;;5074393;28;20040;-67
2022/12/28 01:24:13;;;;;;;7.07;3.00;;;12.80;92.20;;;;;;5074384;28;20063;-69
2022/12/28 01:26:39;;;;;;;6.97;3.15;;;12.80;93.40;;;;;;5072689;28;20040;-67
2022/12/28 01:29:05;;;;;;;7.28;2.53;;;12.80;93.40;;;;;;5037653;28;20080;-70
2022/12/28 01:31:31;;;;;;;5.65;2.58;;;;;;;;;;5073846;28;20049;-72
2022/12/28 01:33:57;;;;;;;7.25;2.53;;;12.60;93.40;;;;;;5045772;28;20080;-70
2022/12/28 01:36:27;;;;;;;8.57;3.00;;;12.70;92.20;;;;;;5034234;28;20419;-70
2022/12/28 01:38:57;;;;;;;5.18;2.70;;;12.70;93.40;;;;;;5040730;28;20047;-70
2022/12/28 01:41:23;;;;;;;6.90;2.88;;;12.60;92.20;;;;;;5073325;28;20374;-70
2022/12/28 01:43:52;;;;;;;7.82;2.75;;;12.70;93.40;;;;;;5051358;28;20032;-71
2022/12/28 01:46:24;;;;;;;5.85;2.53;;;12.70;93.50;;;;;;5034008;28;20045;-69
2022/12/28 01:49:04;;;;;;;5.65;2.40;;;12.60;91.50;;;;;;5033728;28;20408;-73
2022/12/28 01:51:36;;;;;;;8.07;2.95;;;12.70;92.30;;;;;;5034771;28;20057;-73
2022/12/28 01:54:02;;;;;;;8.90;3.08;;;12.70;93.50;;;;;;5033822;28;20402;-68
2022/12/28 01:56:27;;;;;;;5.93;2.20;;;12.50;92.40;;;;;;5033020;28;20159;-70
2022/12/28 01:58:54;;;;;;;6.57;2.80;;;12.60;93.60;;;;;;5047507;28;20494;-68
2022/12/28 02:01:19;;;;;;;6.93;2.60;;;12.60;93.80;;;;;;5037777;28;20179;-71
2022/12/28 02:03:45;;;;;;;7.18;2.78;;;12.80;93.70;;;;;;5032923;28;20490;-70
2022/12/28 02:06:12;;;;;;;7.63;3.13;;;;;;;;;;5043514;28;20402;-69
2022/12/28 02:08:40;;;;;;;6.60;2.88;;;12.60;92.60;;;;;;5059209;28;20413;-69
2022/12/28 02:11:06;;;;;;;5.53;2.53;;;12.50;93.70;;;;;;5070930;28;20466;-69
2022/12/28 02:13:32;;;;;;;6.40;2.80;;;12.40;93.90;;;;;;5047574;28;20450;-71
2022/12/28 02:15:57;;;;;;;5.88;2.90;;;12.10;93.80;;;;;;5041405;28;20128;-71
2022/12/28 02:18:24;;;;;;;6.88;2.88;;;12.40;93.80;;;;;;5033597;28;20045;-67
2022/12/28 02:20:50;;;;;;;6.57;2.83;;;;;;;;;;5062771;28;20072;-71
2022/12/28 02:23:19;;;;;;;5.78;2.55;;;12.50;92.30;;;;;;5072676;28;20402;-70
2022/12/28 02:25:51;;;;;;;5.57;2.75;;;12.40;93.90;;;;;;5032573;28;20052;-68
2022/12/28 02:28:17;;;;;;;5.55;2.90;;;;;;;;;;5039045;28;20049;-66
2022/12/28 02:30:48;;;;;;;7.25;2.70;;;12.30;93.90;;;;;;5062113;28;20055;-72
2022/12/28 02:33:24;;;;;;;6.93;2.97;;;12.30;92.80;;;;;;5032416;28;20084;-71
2022/12/28 02:36:02;;;;;;;6.45;2.97;;;12.30;94.00;;;;;;5032298;28;20081;-70
2022/12/28 02:39:27;;;;;;;7.95;2.70;;;12.40;92.20;;;;;;5016388;28;20045;-67
2022/12/28 02:41:53;;;;;;;6.10;2.53;;;12.40;94.20;;;;;;4985605;28;20089;-70
2022/12/28 02:50:04;;;;;;;7.82;3.13;;;12.30;93.00;;;;;;4970325;28;20038;-64
2022/12/28 02:50:06;;;;;;;6.00;2.85;;;12.40;94.10;;;;;;4998085;28;20057;-65
2022/12/28 02:52:41;;;;;;;6.93;2.92;;;12.40;94.20;;;;;;5014403;28;20061;-70
2022/12/28 02:58:40;;;;;;;6.25;2.75;;;12.30;93.10;;;;;;4980839;28;20046;-70
2022/12/28 03:01:11;;;;;;;6.68;2.78;;;12.40;94.20;;;;;;4989640;28;20554;-71
2022/12/28 03:03:52;;;;;;;6.35;2.60;;;;;;;;;;5010302;28;20092;-69
2022/12/28 03:09:49;;;;;;;7.85;2.80;;;12.40;94.30;;;;;;4987027;28;20117;-70
2022/12/28 03:13:01;;;;;;;5.85;2.67;;;12.40;92.40;;;;;;5042765;28;20052;-70
2022/12/28 03:15:33;;;;;;;5.85;2.42;;;12.40;94.50;;;;;;4961160;28;20055;-69
2022/12/28 03:31:53;;;;;;;4.18;2.28;;;12.60;94.70;;;;;;4970685;28;20051;-67
2022/12/28 03:34:19;;;;;;;6.80;2.85;;;12.20;93.50;;;;;;4979551;28;20046;-70
2022/12/28 03:37:08;;;;;;;7.15;2.53;;;12.40;94.60;;;;;;4995194;28;20064;-70
2022/12/28 03:39:46;;;;;;;5.88;2.60;;;12.40;93.50;;;;;;4995039;28;20050;-69
2022/12/28 03:45:28;;;;;;;4.97;2.72;;;12.30;95.10;;;;;;4964523;28;20058;-67
2022/12/28 03:47:54;;;;;;;6.15;2.50;;;12.10;94.70;;;;;;4956119;28;20050;-64
2022/12/28 03:50:20;;;;;;;5.47;2.63;;;12.40;93.10;;;;;;5036266;28;20060;-70
2022/12/28 03:52:46;;;;;;;4.50;2.30;;;12.50;94.80;;;;;;5076091;28;20041;-70
2022/12/28 03:55:16;;;;;;;5.72;2.40;;;12.50;93.80;;;;;;5075276;28;20040;-64
2022/12/28 03:57:42;;;;;;;5.80;2.90;;;;;;;;;;5074247;28;20072;-70
2022/12/28 04:00:09;;;;;;;4.30;2.35;;;12.50;95.00;;;;;;5065546;28;20044;-70
2022/12/28 04:02:36;;;;;;;4.60;2.13;;;12.60;93.90;;;;;;5073260;28;20119;-60
2022/12/28 04:05:02;;;;;;;4.07;2.20;;;12.40;94.80;;;;;;5074186;28;20440;-71
2022/12/28 04:07:27;;;;;;;6.07;2.20;;;12.40;93.70;;;;;;5038941;28;20128;-63
2022/12/28 04:09:53;;;;;;;4.63;2.10;;;12.60;95.00;;;;;;5034918;28;20127;-64
2022/12/28 04:12:19;;;;;;;7.18;2.35;;;12.40;95.00;;;;;;5069986;28;20040;-66
2022/12/28 04:14:44;;;;;;;4.72;2.10;;;12.60;95.10;;;;;;5074865;28;20119;-67
2022/12/28 04:17:10;;;;;;;4.85;1.98;;;12.60;94.90;;;;;;5057568;28;20089;-70
2022/12/28 04:19:36;;;;;;;5.40;2.30;;;;;;;;;;5035921;28;20045;-65
2022/12/28 04:22:02;;;;;;;7.13;2.20;;;12.60;93.90;;;;;;5062164;28;20050;-70
2022/12/28 04:24:28;;;;;;;5.47;2.30;;;12.90;95.10;;;;;;5038813;28;20124;-71
2022/12/28 04:26:54;;;;;;;4.80;2.20;;;12.60;95.20;;;;;;5035580;28;20140;-68
2022/12/28 04:29:20;;;;;;;4.30;2.40;;;;;;;;;;5035529;28;20046;-70
2022/12/28 04:31:46;;;;;;;4.80;2.20;;;12.70;95.00;;;;;;5056188;28;20053;-72
2022/12/28 04:34:12;;;;;;;4.70;2.40;;;12.90;94.10;;;;;;5075112;28;20040;-68
2022/12/28 04:36:41;;;;;;;3.22;1.92;;;12.80;95.10;;;;;;5075581;28;20135;-72
2022/12/28 04:39:07;;;;;;;4.95;2.35;;;12.90;94.10;;;;;;5075644;28;20045;-66
2022/12/28 04:41:33;;;;;;;4.35;2.13;;;12.70;95.10;;;;;;5050757;28;20395;-65
2022/12/28 04:43:59;;;;;;;3.92;1.90;;;12.80;95.10;;;;;;5075501;28;20547;-70
2022/12/28 04:46:24;;;;;;;6.18;2.40;;;12.70;94.10;;;;;;5075397;28;20378;-68
2022/12/28 04:48:50;;;;;;;5.20;2.38;;;12.80;95.20;;;;;;5059534;28;20479;-71
2022/12/28 04:51:23;;;;;;;4.43;2.03;;;12.50;94.00;;;;;;5054587;28;20111;-70
2022/12/28 04:53:49;;;;;;;3.97;2.10;;;12.70;95.20;;;;;;5075259;28;20051;-67
2022/12/28 04:56:16;;;;;;;4.07;2.10;;;12.80;95.20;;;;;;5074066;28;20057;-70
2022/12/28 04:58:42;;;;;;;4.97;2.10;;;12.90;95.20;;;;;;5035511;28;20075;-68
2022/12/28 05:01:08;;;;;;;3.85;2.00;;;12.60;95.20;;;;;;5037167;28;20124;-71
2022/12/28 05:03:35;;;;;;;4.43;2.05;;;12.70;95.20;;;;;;5074810;28;20051;-69
2022/12/28 05:06:01;;;;;;;5.40;2.08;;;13.00;93.90;;;;;;5067209;28;20049;-64
2022/12/28 05:08:27;;;;;;;4.30;1.90;;;12.70;94.20;;;;;;5061495;28;20041;-70
2022/12/28 05:10:53;;;;;;;3.28;1.60;;;;;;;;;;5054962;28;20037;-64
2022/12/28 05:13:19;;;;;;;3.53;1.77;;;12.80;95.20;;;;;;5067544;28;20401;-71
2022/12/28 05:15:46;;;;;;;3.28;1.67;;;12.90;95.50;;;;;;5071122;28;20279;-70
2022/12/28 05:18:12;;;;;;;5.10;1.65;;;13.00;95.30;;;;;;5073581;28;20049;-65
2022/12/28 05:20:37;;;;;;;4.63;1.73;;;13.00;95.40;;;;;;5073227;28;20083;-66
2022/12/28 05:23:03;;;;;;;3.05;1.80;;;12.90;95.30;;;;;;5073246;28;20464;-69
2022/12/28 05:25:29;;;;;;;2.65;1.60;;;12.90;95.50;;;;;;5058582;28;20045;-70
2022/12/28 05:27:55;;;;;;;4.32;1.65;;;12.90;94.30;;;;;;5054661;28;20045;-69
2022/12/28 05:30:20;;;;;;;4.13;1.70;;;12.80;95.30;;;;;;5060158;28;20514;-70
2022/12/28 05:32:46;;;;;;;3.35;1.50;;;12.90;95.50;;;;;;5035108;28;20088;-67
2022/12/28 05:35:12;;;;;;;3.42;1.70;;;12.90;94.30;;;;;;5049606;28;20040;-71
2022/12/28 05:37:38;;;;;;;2.45;1.40;;;13.10;95.40;;;;;;5069483;28;20045;-69
2022/12/28 05:40:04;;;;;;;2.38;1.38;;;12.90;95.20;;;;;;5047928;28;20124;-61
2022/12/28 05:42:30;;;;;;;3.38;1.60;;;;;;;;;;5035024;28;20368;-60
2022/12/28 05:44:56;;;;;;;2.90;1.40;;;12.90;94.40;;;;;;5040387;28;20048;-71
2022/12/28 05:47:22;;;;;;;3.22;1.60;;;12.90;95.40;;;;;;5072011;28;20105;-68
2022/12/28 05:49:47;;;;;;;2.88;1.52;;;13.00;95.60;;;;;;5034127;28;20514;-65
2022/12/28 05:52:13;;;;;;;2.90;1.40;;;13.00;94.50;;;;;;5034247;28;20100;-67
2022/12/28 05:54:39;;;;;;;3.60;1.70;;;12.60;95.40;;;;;;5044020;28;20049;-66
2022/12/28 05:57:05;;;;;;;2.97;1.58;;;12.90;94.50;;;;;;5036821;28;20046;-70
2022/12/28 05:59:30;;;;;;;3.15;1.70;;;13.00;94.50;;;;;;5050303;28;20136;-70
2022/12/28 06:01:56;;;;;;;2.33;1.42;;;13.00;95.70;;;;;;5053969;28;20048;-70
2022/12/28 06:04:22;;;;;;;2.83;1.52;;;12.80;95.50;;;;;;5052017;28;20540;-70
2022/12/28 06:06:48;;;;;;;2.25;1.50;;;13.00;95.60;;;;;;5072313;28;20067;-70
2022/12/28 06:09:14;;;;;;;3.30;1.50;;;13.00;96.00;;;;;;5072191;28;20048;-67
2022/12/28 06:11:40;;;;;;;3.92;1.60;;;13.00;95.70;;;;;;5050989;28;20046;-70
2022/12/28 06:14:06;;;;;;;2.70;1.50;;;;;;;;;;5034528;28;20064;-66
2022/12/28 06:16:34;;;;;;;2.40;1.50;;;12.80;95.60;;;;;;5073433;28;20096;-67
2022/12/28 06:19:03;;;;;;;2.95;1.85;;;12.90;94.30;;;;;;5071462;28;20478;-68
2022/12/28 06:21:30;;;;;;;2.65;1.63;;;13.10;95.80;;;;;;5034617;28;20037;-61
2022/12/28 06:23:57;;;;;;;2.35;1.40;;;13.00;94.60;;;;;;5053769;28;20045;-67
2022/12/28 06:26:22;;;;;;;2.90;1.70;;;12.90;95.70;;;;;;5066502;28;20040;-70
2022/12/28 06:28:48;;;;;;;3.78;1.50;;;13.30;96.00;;;;;;5074260;28;20101;-70
2022/12/28 06:31:15;;;;;;;2.38;1.40;;;;;;;;;;5073556;28;20398;-64
2022/12/28 06:33:41;;;;;;;2.47;1.60;;;13.20;94.40;;;;;;5073132;28;20040;-66
2022/12/28 06:36:31;;;;;;;2.63;1.65;;;13.00;94.50;;;;;;5049340;28;20072;-69
2022/12/28 06:38:58;;;;;;;3.70;1.73;;;13.20;94.70;;;;;;5026417;28;20053;-63
2022/12/28 06:41:24;;;;;;;2.67;1.67;;;13.00;95.70;;;;;;5032012;28;20613;-67
2022/12/28 06:43:50;;;;;;;3.50;1.88;;;12.90;94.60;;;;;;5033564;28;20109;-67
2022/12/28 06:46:16;;;;;;;2.55;1.52;;;13.00;94.70;;;;;;5061593;28;20506;-70
2022/12/28 06:48:43;;;;;;;4.32;2.20;;;13.10;95.90;;;;;;5073336;28;20044;-69
2022/12/28 06:51:11;;;;;;;3.40;1.92;;;13.00;94.80;;;;;;5073106;28;20044;-66
2022/12/28 06:53:37;;;;;;;4.20;2.35;;;13.00;95.80;;;;;;5073058;28;20128;-66
2022/12/28 06:56:11;;;;;;;4.93;2.17;;;13.10;94.80;;;;;;5062697;28;20136;-68
2022/12/28 06:58:36;;;;;;;4.10;2.00;;;12.80;95.80;;;;;;5053365;28;20044;-62
2022/12/28 07:01:13;;;;;;;3.42;2.03;;;13.20;96.00;;;;;;5034712;28;20505;-69
2022/12/28 07:03:38;;;;;;;5.20;2.20;;;13.20;95.90;;;;;;5058751;28;20041;-66
2022/12/28 07:06:04;;;;;;;4.72;2.20;;;13.30;96.20;;;;;;5069904;28;20033;-69
2022/12/28 07:08:31;;;;;;;4.15;1.88;;;13.10;95.90;;;;;;5072301;28;20041;-70
2022/12/28 07:11:10;;;;;;;4.22;2.10;;;13.20;96.00;;;;;;5073227;28;20123;-69
2022/12/28 07:13:36;;;;;;;3.72;2.00;;;13.30;96.10;;;;;;5061988;28;20123;-68
2022/12/28 07:16:06;;;;;;;3.90;1.90;;;13.40;96.00;;;;;;5043472;28;20128;-71
2022/12/28 07:18:32;;;;;;;4.07;2.30;;;13.30;96.10;;;;;;5052791;28;20103;-69
2022/12/28 07:21:11;;;;;;;3.55;1.98;;;13.20;94.20;;;;;;5066710;28;20044;-70
2022/12/28 07:23:37;;;;;;;3.90;2.03;;;13.30;96.20;;;;;;5072869;28;20509;-70
2022/12/28 07:26:09;;;;;;;3.78;2.28;;;13.20;94.90;;;;;;5070621;28;20048;-69
2022/12/28 07:28:38;;;;;;;3.67;2.15;;;13.20;96.10;;;;;;5068857;28;20409;-60
2022/12/28 07:31:08;;;;;;;3.55;1.98;;;13.20;96.10;;;;;;5043915;28;20037;-66
2022/12/28 07:33:35;;;;;;;4.05;2.15;;;13.20;96.20;;;;;;5055228;28;20131;-66
2022/12/28 07:36:01;;;;;;;3.75;2.25;;;;;;;;;;5063952;28;20044;-62
2022/12/28 07:38:27;;;;;;;3.53;2.10;;;13.60;95.80;;;;;;5071789;28;20044;-72
2022/12/28 07:41:03;;;;;;;4.00;1.98;;;13.40;95.30;;;;;;5077270;28;20048;-64
2022/12/28 07:43:29;;;;;;;2.88;1.90;;;13.20;96.30;;;;;;5076316;28;20045;-70
2022/12/28 07:46:01;;;;;;;4.05;2.10;;;;;;;;;;5045685;28;20073;-66
2022/12/28 07:48:28;;;;;;;3.28;1.90;;;;;;;;;;5065819;28;20048;-71
2022/12/28 07:50:54;;;;;;;3.53;2.05;;;13.30;95.30;;;;;;5076244;28;20094;-61
2022/12/28 07:53:20;;;;;;;4.40;2.20;;;13.30;95.30;;;;;;5076096;28;20048;-63
2022/12/28 07:55:54;;;;;;;3.72;2.00;;;13.40;96.50;;;;;;5056710;28;20041;-60
2022/12/28 07:58:20;;;;;;;5.05;2.15;;;13.10;95.30;;;;;;5059655;28;20074;-62
2022/12/28 08:00:46;;;;;;;2.80;1.70;;;13.30;96.40;;;;;;5075984;28;20123;-62
2022/12/28 08:03:12;;;;;;;3.97;1.90;;;;;;;;;;5076028;28;20045;-60
2022/12/28 08:05:38;;;;;;;3.53;2.00;;;13.30;96.40;;;;;;5059093;28;20052;-66
2022/12/28 08:08:04;;;;;;;3.47;2.03;;;13.30;96.40;;;;;;5056936;28;20510;-72
2022/12/28 08:10:29;;;;;;;3.45;1.80;;;13.60;96.50;;;;;;5072289;28;20414;-73
2022/12/28 08:12:57;;;;;;;3.85;2.00;;;13.50;96.40;;;;;;5075944;28;20044;-70
2022/12/28 08:15:23;;;;;;;3.63;2.20;;;13.50;96.40;;;;;;5065133;28;20063;-73
2022/12/28 08:17:49;;;;;;;4.18;2.20;;;13.60;96.40;;;;;;5066125;28;20060;-74
2022/12/28 08:20:15;;;;;;;4.35;2.20;;;13.50;94.90;;;;;;5074774;28;20124;-67
2022/12/28 08:22:41;;;;;;;5.57;2.50;;;13.50;96.60;;;;;;5036352;28;20042;-68
2022/12/28 08:25:07;;;;;;;4.38;2.60;;;13.10;96.30;;;;;;5036194;28;20046;-71
2022/12/28 08:27:33;;;;;;;4.15;2.03;;;;;;;;;;5052027;28;20131;-72
2022/12/28 08:29:59;;;;;;;4.35;2.25;;;13.60;95.10;;;;;;5043549;28;20049;-73
2022/12/28 08:32:25;;;;;;;4.05;2.17;;;;;;;;;;5035634;28;20041;-69
2022/12/28 08:34:51;;;;;;;4.28;2.50;;;;;;;;;;5035761;28;20046;-68
2022/12/28 08:37:17;;;;;;;4.30;2.90;;;;;;;;;;5040636;28;20082;-63
2022/12/28 08:39:43;;;;;;;4.88;2.53;;;13.70;96.50;;;;;;5035665;28;20048;-63
2022/12/28 08:42:09;;;;;;;5.43;2.65;;;13.70;96.80;;;;;;5035343;28;20480;-70
2022/12/28 08:44:34;;;;;;;3.70;2.40;;;13.30;96.60;;;;;;5035186;28;20034;-62
2022/12/28 08:47:01;;;;;;;4.72;2.50;;;;;;;;;;5035077;28;20368;-66
2022/12/28 08:49:26;;;;;;;3.95;2.42;;;13.70;96.50;;;;;;5071210;28;20033;-60
2022/12/28 08:51:52;;;;;;;5.43;2.60;;;13.90;96.60;;;;;;5071676;28;20383;-61
2022/12/28 08:54:18;;;;;;;5.05;2.70;;;;;;;;;;5073722;28;20044;-64
2022/12/28 08:56:44;;;;;;;4.60;2.60;;;13.80;96.50;;;;;;5036256;28;20049;-70
2022/12/28 08:59:15;;;;;;;4.80;2.47;;;13.30;96.30;;;;;;5054390;28;22384;-73
2022/12/28 09:01:41;;;;;;;4.15;2.50;;;14.00;96.60;;;;;;5055656;28;20043;-76
2022/12/28 09:04:10;;;;;;;4.82;2.88;;;13.70;96.60;;;;;;5054615;28;20044;-72
2022/12/28 09:06:37;;;;;;;5.60;2.80;;;13.80;96.70;;;;;;5037154;28;20045;-73
2022/12/28 09:09:04;;;;;;;5.75;2.80;;;13.60;96.60;;;;;;5070549;28;20513;-72
2022/12/28 09:11:30;;;;;;;4.78;2.65;;;13.80;96.70;;;;;;5069578;28;20055;-68
2022/12/28 09:13:55;;;;;;;5.22;3.03;;;13.80;96.80;;;;;;5034492;28;20053;-69
2022/12/28 09:16:24;;;;;;;5.43;2.58;;;13.70;96.80;;;;;;5034775;28;20041;-68
2022/12/28 09:18:53;;;;;;;4.70;3.00;;;13.80;95.40;;;;;;5059982;28;20048;-71
2022/12/28 09:21:19;;;;;;;4.10;2.50;;;13.70;96.80;;;;;;5074846;28;20045;-67
2022/12/28 09:23:45;;;;;;;4.30;2.60;;;13.70;95.70;;;;;;5074787;28;20044;-69
2022/12/28 09:26:12;;;;;;;4.32;2.50;;;;;;;;;;5064916;28;20037;-69
2022/12/28 09:28:38;;;;;;;6.90;2.80;;;13.80;97.00;;;;;;5054535;28;20049;-69
2022/12/28 09:31:05;;;;;;;4.72;2.50;;;;;;;;;;5034663;28;20038;-69
2022/12/28 09:36:15;;;;;;;3.90;2.10;;;13.50;96.80;;;;;;5066017;28;20433;-71
2022/12/28 09:38:42;;;;;;;5.60;2.40;;;13.90;97.30;;;;;;5067768;28;20041;-63
2022/12/28 09:41:22;;;;;;;4.95;2.60;;;13.90;95.10;;;;;;5074386;28;20086;-72
2022/12/28 09:43:50;;;;;;;4.03;2.30;;;13.90;95.90;;;;;;5071563;28;20052;-64
2022/12/28 09:46:16;;;;;;;4.20;2.70;;;;;;;;;;5045235;28;20053;-66
2022/12/28 09:48:47;;;;;;;4.53;2.40;;;13.90;94.90;;;;;;5037177;28;20479;-70
2022/12/28 09:51:13;;;;;;;4.82;2.13;;;13.90;96.00;;;;;;5046926;28;20063;-72
2022/12/28 09:53:39;;;;;;;4.95;2.17;;;;;;;;;;5051683;28;20045;-69
2022/12/28 09:56:22;;;;;;;3.05;1.80;;;13.50;96.80;;;;;;5051882;28;20498;-68
2022/12/28 09:58:48;;;;;;;3.40;2.00;;;13.90;97.10;;;;;;5051582;28;20072;-66
2022/12/28 10:01:14;;;;;;;2.80;1.70;;;13.90;97.10;;;;;;5049440;28;20094;-67
2022/12/28 10:03:41;;;;;;;3.03;1.67;;;;;;;;;;5049587;28;20506;-72
2022/12/28 10:06:16;;;;;;;3.30;1.70;;;13.90;97.00;;;;;;5051438;28;20045;-71
2022/12/28 10:08:55;;;;;;;3.58;1.90;;;13.70;95.20;;;;;;5051924;28;20076;-73
2022/12/28 10:11:26;;;;;;;2.95;1.73;;;14.00;97.10;;;;;;5058669;28;20128;-73
2022/12/28 10:14:00;;;;;;;3.75;1.77;;;13.90;97.10;;;;;;5055306;28;20058;-69
2022/12/28 10:16:28;;;;;;;3.78;1.80;;;13.90;97.00;;;;;;5051808;28;20443;-61
2022/12/28 10:18:54;;;;;;;3.28;1.88;;;13.90;97.00;;;;;;5033754;28;20044;-68
2022/12/28 10:21:20;;;;;;;2.67;1.67;;;13.80;95.50;;;;;;5050329;28;20482;-72
2022/12/28 10:23:47;;;;;;;2.60;1.60;;;13.50;96.90;;;;;;5056775;28;20078;-61
2022/12/28 10:26:16;;;;;;;2.97;1.73;;;13.80;97.10;;;;;;5042267;28;20045;-63
2022/12/28 10:28:52;;;;;;;3.67;1.67;;;13.90;95.80;;;;;;5042255;28;20396;-70
2022/12/28 10:31:31;;;;;;;3.22;2.00;;;;;;;;;;5057429;28;20465;-68
2022/12/28 10:33:57;;;;;;;2.72;1.50;;;;;;;;;;5052654;28;20047;-73
2022/12/28 10:36:23;;;;;;;3.13;1.70;;;13.90;96.90;;;;;;5047968;28;20047;-71
2022/12/28 10:38:50;;;;;;;2.30;1.52;;;;;;;;;;5055684;28;20406;-73
2022/12/28 10:41:17;;;;;;;2.65;1.40;;;14.00;97.00;;;;;;5051879;28;20056;-72
2022/12/28 10:43:51;;;;;;;2.92;1.55;;;14.10;97.20;;;;;;5070922;28;20056;-72
2022/12/28 10:46:22;;;;;;;1.98;1.30;;;13.80;95.00;;;;;;5067319;28;20045;-73
2022/12/28 10:48:52;;;;;;;2.40;1.40;;;;;;;;;;5072859;28;20044;-72
2022/12/28 10:51:19;;;;;;;1.90;1.15;;;14.30;97.10;;;;;;5072804;28;20098;-73
2022/12/28 10:53:50;;;;;;;2.40;1.10;;;14.20;97.00;;;;;;5044908;28;20078;-72
2022/12/28 10:56:26;;;;;;;1.35;1.05;;;14.20;95.00;;;;;;5054369;28;20045;-71
2022/12/28 10:58:53;;;;;;;2.42;1.40;;;;;;;;;;5072815;28;20044;-72
2022/12/28 11:01:24;;;;;;;1.33;1.02;;;14.20;95.80;;;;;;5071618;28;20091;-73
2022/12/28 11:03:55;;;;;;;2.88;1.50;;;14.00;95.20;;;;;;5073150;28;20550;-71
2022/12/28 11:06:23;;;;;;;3.25;1.40;;;14.30;97.10;;;;;;5069031;28;21559;-72
2022/12/28 11:09:21;;;;;;;1.92;1.40;;;14.00;95.90;;;;;;5075137;28;20051;-72
2022/12/28 11:11:48;;;;;;;2.35;1.40;;;;;;;;;;5025504;28;20442;-72
2022/12/28 11:14:33;;;;;;;2.55;1.30;;;13.80;97.10;;;;;;5036409;28;20095;-73
2022/12/28 11:17:32;;;;;;;2.72;1.40;;;14.10;96.10;;;;;;5036546;28;20103;-74
2022/12/28 11:20:05;;;;;;;2.75;1.40;;;14.00;97.10;;;;;;4973832;28;20125;-72
2022/12/28 11:22:31;;;;;;;3.00;1.70;;;;;;;;;;4994301;28;20117;-72
2022/12/28 11:24:58;;;;;;;3.03;1.60;;;14.10;97.20;;;;;;5011144;28;20563;-72
2022/12/28 11:27:24;;;;;;;3.38;1.75;;;14.10;97.20;;;;;;5010991;28;20134;-72
2022/12/28 11:29:51;;;;;;;4.22;1.85;;;14.00;97.30;;;;;;4994237;28;20487;-73
2022/12/28 11:32:21;;;;;;;2.38;1.50;;;14.10;97.20;;;;;;4977194;28;20081;-72
2022/12/28 11:34:47;;;;;;;3.22;1.52;;;14.10;97.30;;;;;;4976302;28;20054;-72
2022/12/28 11:37:14;;;;;;;2.75;1.55;;;14.00;97.40;;;;;;4979574;28;20103;-67
2022/12/28 11:39:46;;;;;;;2.35;1.50;;;14.10;96.40;;;;;;4994265;28;20125;-68
2022/12/28 11:42:35;;;;;;;2.95;1.67;;;13.90;97.40;;;;;;4994271;28;20125;-62
2022/12/28 11:45:02;;;;;;;1.77;1.40;;;;;;;;;;4993843;28;20046;-72
2022/12/28 11:47:32;;;;;;;2.22;1.40;;;14.10;95.90;;;;;;4978132;28;20038;-70
2022/12/28 11:50:16;;;;;;;2.20;1.35;;;;;;;;;;4994357;28;20128;-72
2022/12/28 11:52:46;;;;;;;3.22;1.50;;;14.00;96.50;;;;;;4994869;28;20174;-66
2022/12/28 11:55:24;;;;;;;1.88;1.35;;;13.80;95.60;;;;;;4997516;28;20042;-69
2022/12/28 11:57:49;;;;;;;5.00;1.55;;;14.00;97.60;;;;;;5040436;28;20136;-62
2022/12/28 12:00:18;;;;;;;2.92;1.50;;;13.80;95.60;;;;;;5057132;28;20116;-69
2022/12/28 12:03:04;;;;;;;2.72;1.48;;;13.90;96.30;;;;;;5061997;28;20049;-63
2022/12/28 12:05:36;;;;;;;2.92;1.70;;;14.30;95.60;;;;;;5039729;28;20542;-73
2022/12/28 12:08:11;;;;;;;2.47;1.42;;;14.10;96.60;;;;;;5055956;28;20456;-66
2022/12/28 12:10:38;;;;;;;2.50;1.40;;;14.20;97.60;;;;;;5052582;28;20045;-72
2022/12/28 12:13:26;;;;;;;2.10;1.40;;;13.80;96.50;;;;;;5042801;28;20051;-73
2022/12/28 12:16:04;;;;;;;3.67;1.58;;;13.70;97.70;;;;;;5035673;28;20060;-73
2022/12/28 12:18:43;;;;;;;2.97;1.60;;;;;;;;;;5035440;28;20553;-64
2022/12/28 12:21:08;;;;;;;1.83;1.20;;;14.00;97.80;;;;;;5055429;28;20072;-66
2022/12/28 12:24:17;;;;;;;3.45;1.50;;;14.10;96.00;;;;;;5055831;28;20508;-68
2022/12/28 12:26:50;;;;;;;2.30;1.35;;;;;;;;;;5024502;28;20512;-69
2022/12/28 12:29:31;;;;;;;2.35;1.30;;;14.00;97.70;;;;;;5068541;28;20052;-69
2022/12/28 12:32:05;;;;;;;1.52;1.20;;;14.20;97.80;;;;;;5066919;28;20098;-70
2022/12/28 12:35:00;;;;;;;1.80;1.17;;;14.20;96.80;;;;;;5054609;28;20116;-69
2022/12/28 12:37:46;;;;;;;2.65;1.27;;;14.20;98.00;;;;;;5021092;28;20045;-69
2022/12/28 12:40:42;;;;;;;1.75;1.25;;;14.10;97.90;;;;;;5035761;28;20454;-68
2022/12/28 12:43:28;;;;;;;1.70;1.00;;;14.10;97.80;;;;;;5049715;28;20052;-69
2022/12/28 12:46:18;;;;;;;2.25;1.15;;;14.20;96.10;;;;;;5050243;28;20041;-69
2022/12/28 12:48:50;;;;;;;1.38;1.00;;;13.80;97.70;;;;;;5054425;28;21979;-70
2022/12/28 12:51:34;;;;;;;1.85;1.02;;;14.30;97.90;;;;;;5063102;28;20041;-72
2022/12/28 12:54:21;;;;;;;0.98;0.88;;;14.10;97.90;;;;;;5045167;28;20041;-70
2022/12/28 12:56:55;;;;;;;2.03;0.95;;;14.30;98.00;;;;;;5036077;28;20049;-70
2022/12/28 12:59:29;;;;;;;1.67;1.10;;;14.20;95.90;;;;;;5033982;28;20128;-69
2022/12/28 13:02:32;;;;;;;1.42;1.00;;;13.90;96.80;;;;;;5028719;28;20494;-70
2022/12/28 13:05:01;;;;;;;1.38;1.20;;;13.70;98.00;;;;;;5055286;28;20041;-70
2022/12/28 13:07:27;;;;;;;2.35;1.27;;;13.80;97.80;;;;;;5068127;28;20044;-70
2022/12/28 13:09:54;;;;;;;2.10;1.20;;;14.10;96.90;;;;;;5062630;28;20049;-70
2022/12/28 13:12:20;;;;;;;1.85;1.02;;;14.20;98.00;;;;;;5045776;28;20045;-70
2022/12/28 13:14:47;;;;;;;1.58;1.17;;;14.10;98.10;;;;;;5074406;28;20487;-70
2022/12/28 13:17:18;;;;;;;2.05;1.23;;;14.30;98.00;;;;;;5073680;28;20088;-72
2022/12/28 13:19:44;;;;;;;2.28;1.23;;;14.10;98.00;;;;;;5074806;28;20127;-65
2022/12/28 13:22:26;;;;;;;2.63;1.33;;;;;;;;;;5070303;28;20060;-73
2022/12/28 13:24:52;;;;;;;1.98;1.23;;;14.10;98.10;;;;;;5059521;28;20437;-73
2022/12/28 13:27:19;;;;;;;1.92;1.10;;;14.20;98.20;;;;;;5070825;28;20044;-71
2022/12/28 13:29:49;;;;;;;11.32;1.58;;;;;;;;;;5054267;28;20037;-72
2022/12/28 13:32:33;;;;;;;3.60;1.27;;;14.00;98.10;;;;;;5054079;28;20128;-73
2022/12/28 13:34:59;;;;;;;4.53;1.25;;;14.10;98.20;;;;;;5051327;28;20060;-61
2022/12/28 13:37:25;;;;;;;4.10;1.23;;;14.00;98.30;;;;;;5054558;28;20045;-68
2022/12/28 13:40:08;;;;;;;1.77;1.05;;;14.00;96.90;;;;;;5054256;28;20049;-68
2022/12/28 13:42:44;;;;;;;1.67;1.00;;;13.90;98.20;;;;;;5053002;28;20057;-63